createdAt,value
2023-02-02T00:01:03.270Z,4.78
2023-02-02T00:02:34.883Z,4.72
2023-02-02T00:04:06.903Z,4.66
2023-02-02T00:05:38.432Z,4.63
2023-02-02T00:07:10.512Z,4.62
2023-02-02T00:08:42.496Z,4.60
2023-02-02T00:10:13.958Z,4.56
2023-02-02T00:11:45.822Z,4.58
2023-02-02T00:13:17.741Z,4.56
2023-02-02T00:14:49.421Z,4.53
2023-02-02T00:16:34.572Z,4.52
2023-02-02T00:18:06.198Z,4.46
2023-02-02T00:19:37.696Z,4.43
2023-02-02T00:21:09.176Z,4.37
2023-02-02T00:22:40.655Z,4.31
2023-02-02T00:24:12.762Z,4.31
2023-02-02T00:25:44.349Z,4.29
2023-02-02T00:27:15.980Z,4.30
2023-02-02T00:28:47.645Z,4.31
2023-02-02T00:30:19.271Z,4.30
2023-02-02T00:31:51.403Z,4.31
2023-02-02T00:33:23.104Z,4.31
2023-02-02T00:34:55.125Z,4.31
2023-02-02T00:36:26.805Z,4.28
2023-02-02T00:37:58.924Z,4.28
2023-02-02T00:39:30.397Z,4.27
2023-02-02T00:41:02.277Z,4.28
2023-02-02T00:42:34.059Z,4.26
2023-02-02T00:44:24.414Z,4.23
2023-02-02T00:45:56.062Z,4.21
2023-02-02T00:47:27.695Z,4.22
2023-02-02T00:48:59.221Z,4.24
2023-02-02T00:50:30.952Z,4.26
2023-02-02T00:52:02.613Z,4.30
2023-02-02T00:53:34.432Z,4.32
2023-02-02T00:55:06.320Z,4.36
2023-02-02T00:56:38.062Z,4.38
2023-02-02T00:58:10.272Z,4.42
2023-02-02T00:59:42.043Z,4.43
2023-02-02T01:01:17.977Z,4.44
2023-02-02T01:02:52.980Z,4.40
2023-02-02T01:04:24.413Z,4.37
2023-02-02T01:05:56.007Z,4.38
2023-02-02T01:07:27.545Z,4.41
2023-02-02T01:08:59.862Z,4.42
2023-02-02T01:10:31.353Z,4.38
2023-02-02T01:12:02.891Z,4.37
2023-02-02T01:13:34.437Z,4.38
2023-02-02T01:15:06.176Z,4.37
2023-02-02T01:16:37.744Z,4.36
2023-02-02T01:18:09.298Z,4.35
2023-02-02T01:19:41.626Z,4.35
2023-02-02T01:21:13.225Z,4.35
2023-02-02T01:22:44.830Z,4.38
2023-02-02T01:24:16.292Z,4.35
2023-02-02T01:25:52.983Z,4.38
2023-02-02T01:27:25.149Z,4.42
2023-02-02T01:28:56.656Z,4.45
2023-02-02T01:30:28.111Z,4.46
2023-02-02T01:31:59.882Z,4.44
2023-02-02T01:33:32.146Z,4.41
2023-02-02T01:35:03.757Z,4.33
2023-02-02T01:36:35.309Z,4.21
2023-02-02T01:38:06.774Z,4.08
2023-02-02T01:39:38.356Z,4.00
2023-02-02T01:41:12.430Z,3.95
2023-02-02T01:42:44.040Z,3.91
2023-02-02T01:44:34.325Z,3.87
2023-02-02T01:46:06.423Z,3.82
2023-02-02T01:47:39.386Z,3.83
2023-02-02T01:49:11.758Z,3.88
2023-02-02T01:50:43.440Z,3.90
2023-02-02T01:52:15.355Z,3.91
2023-02-02T01:53:47.279Z,3.94
2023-02-02T01:55:19.247Z,3.96
2023-02-02T01:56:53.400Z,3.96
2023-02-02T01:58:26.818Z,3.94
2023-02-02T01:59:58.880Z,3.93
2023-02-02T02:01:30.422Z,3.90
2023-02-02T02:03:02.664Z,3.89
2023-02-02T02:04:34.728Z,3.84
2023-02-02T02:06:10.554Z,3.81
2023-02-02T02:07:42.177Z,3.77
2023-02-02T02:09:13.921Z,3.71
2023-02-02T02:10:45.441Z,3.63
2023-02-02T02:12:17.019Z,3.49
2023-02-02T02:14:06.929Z,3.38
2023-02-02T02:16:07.963Z,3.27
2023-02-02T02:18:02.694Z,3.18
2023-02-02T02:20:03.359Z,3.13
2023-02-02T02:22:04.331Z,3.07
2023-02-02T02:24:13.167Z,3.06
2023-02-02T02:26:03.221Z,3.01
2023-02-02T02:27:46.632Z,2.98
2023-02-02T02:29:33.899Z,2.91
2023-02-02T02:31:05.520Z,2.90
2023-02-02T02:32:52.821Z,2.91
2023-02-02T02:34:30.698Z,2.96
2023-02-02T02:36:04.924Z,3.04
2023-02-02T02:37:36.420Z,3.15
2023-02-02T02:39:10.787Z,3.24
2023-02-02T02:40:47.195Z,3.29
2023-02-02T02:42:23.034Z,3.34
2023-02-02T02:43:55.978Z,3.36
2023-02-02T02:45:27.734Z,3.34
2023-02-02T02:46:59.309Z,3.34
2023-02-02T02:48:30.760Z,3.33
2023-02-02T02:50:02.334Z,3.30
2023-02-02T02:51:36.698Z,3.32
2023-02-02T02:53:09.664Z,3.33
2023-02-02T02:54:45.864Z,3.28
2023-02-02T02:56:28.082Z,3.27
2023-02-02T02:58:00.342Z,3.20
2023-02-02T02:59:34.859Z,3.16
2023-02-02T03:01:28.155Z,3.15
2023-02-02T03:02:59.913Z,3.14
2023-02-02T03:04:33.945Z,3.13
2023-02-02T03:06:13.129Z,3.13
2023-02-02T03:07:49.432Z,3.12
2023-02-02T03:09:25.961Z,3.07
2023-02-02T03:10:57.977Z,3.02
2023-02-02T03:12:29.670Z,2.96
2023-02-02T03:14:01.466Z,2.91
2023-02-02T03:15:33.129Z,2.90
2023-02-02T03:17:04.815Z,2.88
2023-02-02T03:18:36.667Z,2.85
2023-02-02T03:20:08.834Z,2.82
2023-02-02T03:21:40.377Z,2.77
2023-02-02T03:23:12.135Z,2.76
2023-02-02T03:24:43.658Z,2.73
2023-02-02T03:26:15.193Z,2.70
2023-02-02T03:27:46.757Z,2.69
2023-02-02T03:29:18.278Z,2.65
2023-02-02T03:30:49.965Z,2.64
2023-02-02T03:32:21.514Z,2.69
2023-02-02T03:33:53.030Z,2.71
2023-02-02T03:35:26.275Z,2.70
2023-02-02T03:36:58.089Z,2.69
2023-02-02T03:38:29.600Z,2.65
2023-02-02T03:40:01.068Z,2.64
2023-02-02T03:41:32.608Z,2.59
2023-02-02T03:43:04.138Z,2.58
2023-02-02T03:44:35.728Z,2.62
2023-02-02T03:46:07.522Z,2.68
2023-02-02T03:47:39.158Z,2.70
2023-02-02T03:49:10.926Z,2.71
2023-02-02T03:50:42.440Z,2.68
2023-02-02T03:52:14.021Z,2.68
2023-02-02T03:53:47.974Z,2.71
2023-02-02T03:55:19.862Z,2.77
2023-02-02T03:56:51.722Z,2.85
2023-02-02T03:58:23.870Z,2.92
2023-02-02T03:59:55.413Z,2.99
2023-02-02T04:01:28.108Z,3.04
2023-02-02T04:02:59.919Z,3.09
2023-02-02T04:04:31.388Z,3.12
2023-02-02T04:06:03.103Z,3.09
2023-02-02T04:07:34.591Z,3.02
2023-02-02T04:09:06.166Z,2.92
2023-02-02T04:10:39.736Z,2.89
2023-02-02T04:12:11.331Z,2.90
2023-02-02T04:13:43.776Z,2.91
2023-02-02T04:15:15.720Z,2.95
2023-02-02T04:16:47.356Z,2.99
2023-02-02T04:18:19.664Z,3.06
2023-02-02T04:19:58.299Z,3.12
2023-02-02T04:21:29.895Z,3.19
2023-02-02T04:23:01.476Z,3.20
2023-02-02T04:24:33.094Z,3.17
2023-02-02T04:26:04.741Z,3.17
2023-02-02T04:27:36.255Z,3.19
2023-02-02T04:29:08.187Z,3.18
2023-02-02T04:30:39.783Z,3.17
2023-02-02T04:32:11.352Z,3.16
2023-02-02T04:33:43.057Z,3.12
2023-02-02T04:35:14.538Z,3.08
2023-02-02T04:36:46.416Z,3.07
2023-02-02T04:38:18.104Z,3.11
2023-02-02T04:39:50.774Z,3.17
2023-02-02T04:41:23.403Z,3.24
2023-02-02T04:42:54.963Z,3.32
2023-02-02T04:44:27.185Z,3.35
2023-02-02T04:45:58.843Z,3.39
2023-02-02T04:47:30.371Z,3.41
2023-02-02T04:49:02.119Z,3.43
2023-02-02T04:50:34.015Z,3.46
2023-02-02T04:52:05.556Z,3.51
2023-02-02T04:53:37.288Z,3.56
2023-02-02T04:55:09.027Z,3.56
2023-02-02T04:56:40.530Z,3.55
2023-02-02T04:58:12.039Z,3.57
2023-02-02T04:59:43.472Z,3.57
2023-02-02T05:01:15.919Z,3.55
2023-02-02T05:02:47.511Z,3.56
2023-02-02T05:04:19.399Z,3.52
2023-02-02T05:05:51.383Z,3.48
2023-02-02T05:07:23.523Z,3.43
2023-02-02T05:08:55.098Z,3.41
2023-02-02T05:10:26.819Z,3.41
2023-02-02T05:11:58.463Z,3.40
2023-02-02T05:13:30.123Z,3.37
2023-02-02T05:15:03.521Z,3.33
2023-02-02T05:16:35.355Z,3.27
2023-02-02T05:18:06.843Z,3.24
2023-02-02T05:19:38.386Z,3.24
2023-02-02T05:21:10.003Z,3.21
2023-02-02T05:22:42.133Z,3.18
2023-02-02T05:24:13.697Z,3.17
2023-02-02T05:25:45.263Z,3.16
2023-02-02T05:27:16.759Z,3.14
2023-02-02T05:28:48.683Z,3.10
2023-02-02T05:30:20.386Z,3.07
2023-02-02T05:31:51.936Z,3.07
2023-02-02T05:33:23.758Z,3.14
2023-02-02T05:34:55.402Z,3.18
2023-02-02T05:36:27.151Z,3.17
2023-02-02T05:37:59.407Z,3.16
2023-02-02T05:39:30.971Z,3.16
2023-02-02T05:41:02.530Z,3.20
2023-02-02T05:42:34.238Z,3.18
2023-02-02T05:44:05.795Z,3.17
2023-02-02T05:45:37.532Z,3.21
2023-02-02T05:47:09.549Z,3.25
2023-02-02T05:48:41.195Z,3.26
2023-02-02T05:50:12.870Z,3.33
2023-02-02T05:51:45.505Z,3.35
2023-02-02T05:53:17.075Z,3.33
2023-02-02T05:54:48.677Z,3.29
2023-02-02T05:56:20.300Z,3.26
2023-02-02T05:57:51.907Z,3.21
2023-02-02T05:59:23.429Z,3.17
2023-02-02T06:00:56.578Z,3.17
2023-02-02T06:02:28.401Z,3.11
2023-02-02T06:03:59.994Z,3.10
2023-02-02T06:05:31.701Z,3.07
2023-02-02T06:07:03.341Z,3.01
2023-02-02T06:08:35.336Z,3.00
2023-02-02T06:10:07.607Z,2.98
2023-02-02T06:11:39.681Z,2.93
2023-02-02T06:13:11.211Z,2.88
2023-02-02T06:14:42.805Z,2.85
2023-02-02T06:16:14.391Z,2.83
2023-02-02T06:17:45.971Z,2.87
2023-02-02T06:19:17.594Z,2.93
2023-02-02T06:20:49.153Z,2.97
2023-02-02T06:22:20.811Z,3.06
2023-02-02T06:23:52.345Z,3.12
2023-02-02T06:25:24.241Z,3.21
2023-02-02T06:26:55.989Z,3.37
2023-02-02T06:28:27.797Z,3.50
2023-02-02T06:29:59.384Z,3.65
2023-02-02T06:31:31.084Z,3.83
2023-02-02T06:33:02.773Z,3.96
2023-02-02T06:34:34.220Z,4.10
2023-02-02T06:36:06.164Z,4.19
2023-02-02T06:37:39.247Z,4.27
2023-02-02T06:39:10.913Z,4.32
2023-02-02T06:40:42.503Z,4.46
2023-02-02T06:42:21.353Z,4.51
2023-02-02T06:43:53.657Z,4.56
2023-02-02T06:45:25.972Z,4.65
2023-02-02T06:46:57.779Z,4.75
2023-02-02T06:48:29.287Z,4.83
2023-02-02T06:50:00.910Z,4.90
2023-02-02T06:51:32.451Z,4.94
2023-02-02T06:53:04.390Z,4.95
2023-02-02T06:54:35.938Z,5.01
2023-02-02T06:56:07.784Z,5.02
2023-02-02T06:57:39.385Z,5.05
2023-02-02T06:59:11.061Z,5.06
2023-02-02T07:00:42.752Z,5.07
2023-02-02T07:02:14.356Z,5.07
2023-02-02T07:03:48.449Z,5.02
2023-02-02T07:05:21.685Z,5.02
2023-02-02T07:06:53.475Z,5.04
2023-02-02T07:08:24.970Z,5.04
2023-02-02T07:09:57.869Z,5.04
2023-02-02T07:11:30.951Z,5.06
2023-02-02T07:13:02.880Z,5.10
2023-02-02T07:14:34.779Z,5.07
2023-02-02T07:16:06.578Z,5.04
2023-02-02T07:17:38.522Z,5.03
2023-02-02T07:19:10.090Z,5.04
2023-02-02T07:20:41.817Z,5.04
2023-02-02T07:22:13.335Z,5.06
2023-02-02T07:23:44.911Z,5.01
2023-02-02T07:25:16.530Z,4.97
2023-02-02T07:26:48.042Z,4.96
2023-02-02T07:28:19.618Z,4.95
2023-02-02T07:29:51.148Z,4.99
2023-02-02T07:31:23.840Z,5.05
2023-02-02T07:32:55.344Z,5.14
2023-02-02T07:34:27.012Z,5.22
2023-02-02T07:35:58.552Z,5.24
2023-02-02T07:37:30.200Z,5.22
2023-02-02T07:39:04.468Z,5.23
2023-02-02T07:40:36.039Z,5.26
2023-02-02T07:42:08.974Z,5.32
2023-02-02T07:43:40.500Z,5.36
2023-02-02T07:45:35.917Z,5.38
2023-02-02T07:47:03.616Z,5.40
2023-02-02T07:48:35.216Z,5.36
2023-02-02T07:50:06.997Z,5.39
2023-02-02T07:51:40.404Z,5.39
2023-02-02T07:53:14.819Z,5.40
2023-02-02T07:54:46.453Z,5.33
2023-02-02T07:56:24.975Z,5.21
2023-02-02T07:57:59.200Z,5.13
2023-02-02T07:59:32.394Z,5.00
2023-02-02T08:01:08.038Z,4.95
2023-02-02T08:02:39.732Z,4.92
2023-02-02T08:04:11.335Z,4.91
2023-02-02T08:05:42.931Z,4.90
2023-02-02T08:07:15.146Z,4.87
2023-02-02T08:08:47.009Z,4.85
2023-02-02T08:10:18.687Z,4.82
2023-02-02T08:11:50.391Z,4.82
2023-02-02T08:13:23.312Z,4.82
2023-02-02T08:14:55.018Z,4.84
2023-02-02T08:16:26.787Z,4.92
2023-02-02T08:17:59.570Z,4.97
2023-02-02T08:19:31.131Z,4.98
2023-02-02T08:21:03.387Z,5.03
2023-02-02T08:22:34.971Z,5.10
2023-02-02T08:24:06.751Z,5.17
2023-02-02T08:25:38.289Z,5.17
2023-02-02T08:27:10.219Z,5.19
2023-02-02T08:28:42.291Z,5.20
2023-02-02T08:30:14.284Z,5.21
2023-02-02T08:31:45.974Z,5.31
2023-02-02T08:33:17.707Z,5.37
2023-02-02T08:34:50.091Z,5.36
2023-02-02T08:36:22.427Z,5.39
2023-02-02T08:37:54.071Z,5.50
2023-02-02T08:39:25.691Z,5.67
2023-02-02T08:41:04.114Z,5.85
2023-02-02T08:42:36.198Z,6.01
2023-02-02T08:44:10.923Z,6.21
2023-02-02T08:46:02.840Z,6.39
2023-02-02T08:47:35.038Z,6.59
2023-02-02T08:49:06.782Z,6.80
2023-02-02T08:50:38.781Z,7.09
2023-02-02T08:52:10.329Z,7.43
2023-02-02T08:53:42.417Z,7.73
2023-02-02T08:55:15.064Z,7.99
2023-02-02T08:56:46.618Z,8.30
2023-02-02T08:58:18.485Z,8.55
2023-02-02T08:59:50.089Z,8.67
2023-02-02T09:01:28.322Z,8.88
2023-02-02T09:03:00.563Z,8.97
2023-02-02T09:04:32.167Z,9.18
2023-02-02T09:06:04.384Z,9.30
2023-02-02T09:07:36.384Z,9.35
2023-02-02T09:09:09.235Z,9.43
2023-02-02T09:10:41.024Z,9.53
2023-02-02T09:12:12.896Z,9.66
2023-02-02T09:13:49.113Z,9.75
2023-02-02T09:15:20.776Z,9.92
2023-02-02T09:16:52.550Z,9.97
2023-02-02T09:18:24.216Z,10.06
2023-02-02T09:19:55.815Z,10.07
2023-02-02T09:21:27.613Z,10.14
2023-02-02T09:22:59.607Z,10.19
2023-02-02T09:24:31.576Z,10.21
2023-02-02T09:26:13.868Z,10.21
2023-02-02T09:27:45.456Z,10.23
2023-02-02T09:29:18.392Z,10.09
2023-02-02T09:30:51.935Z,10.08
2023-02-02T09:32:23.792Z,10.04
2023-02-02T09:33:55.406Z,10.05
2023-02-02T09:35:27.567Z,9.94
2023-02-02T09:36:59.531Z,9.87
2023-02-02T09:38:31.276Z,9.81
2023-02-02T09:40:03.275Z,9.82
2023-02-02T09:41:34.987Z,9.91
2023-02-02T09:43:15.892Z,10.01
2023-02-02T09:44:58.156Z,10.02
2023-02-02T09:47:02.030Z,10.05
2023-02-02T09:49:03.481Z,9.98
2023-02-02T09:50:39.688Z,9.76
2023-02-02T09:52:17.213Z,9.75
2023-02-02T09:53:57.363Z,9.74
2023-02-02T09:55:33.595Z,9.76
2023-02-02T09:57:09.630Z,9.75
2023-02-02T09:58:52.159Z,9.74
2023-02-02T10:00:24.188Z,9.80
2023-02-02T10:01:56.549Z,9.92
2023-02-02T10:03:28.416Z,9.93
2023-02-02T10:05:08.785Z,9.94
2023-02-02T10:06:41.513Z,9.87
2023-02-02T10:08:18.467Z,9.89
2023-02-02T10:10:02.953Z,9.95
2023-02-02T10:11:36.604Z,9.95
2023-02-02T10:13:14.178Z,9.88
2023-02-02T10:15:00.559Z,10.00
2023-02-02T10:16:36.928Z,10.02
2023-02-02T10:18:30.381Z,10.03
2023-02-02T10:20:21.176Z,10.02
2023-02-02T10:22:08.772Z,10.04
2023-02-02T10:23:42.062Z,9.98
2023-02-02T10:25:15.161Z,9.98
2023-02-02T10:26:48.263Z,10.02
2023-02-02T10:28:20.681Z,10.00
2023-02-02T10:29:58.974Z,9.92
2023-02-02T10:31:43.903Z,9.96
2023-02-02T10:33:19.856Z,9.92
2023-02-02T10:35:06.857Z,10.03
2023-02-02T10:36:43.635Z,10.21
2023-02-02T10:38:18.916Z,10.27
2023-02-02T10:39:56.531Z,10.21
2023-02-02T10:41:38.520Z,10.23
2023-02-02T10:43:29.110Z,10.17
2023-02-02T10:45:10.459Z,10.10
2023-02-02T10:46:58.758Z,10.22
2023-02-02T10:48:38.440Z,10.39
2023-02-02T10:50:18.076Z,10.44
2023-02-02T10:52:13.187Z,10.37
2023-02-02T10:53:50.489Z,10.24
2023-02-02T10:55:22.129Z,10.22
2023-02-02T10:56:54.115Z,10.15
2023-02-02T10:58:28.776Z,10.24
2023-02-02T11:00:06.153Z,10.35
2023-02-02T11:01:38.090Z,10.37
2023-02-02T11:03:10.942Z,10.49
2023-02-02T11:05:01.385Z,10.39
2023-02-02T11:06:51.203Z,10.37
2023-02-02T11:08:28.443Z,10.55
2023-02-02T11:10:00.342Z,10.70
2023-02-02T11:11:42.506Z,10.81
2023-02-02T11:13:34.731Z,10.86
2023-02-02T11:15:07.599Z,10.96
2023-02-02T11:16:43.548Z,11.02
2023-02-02T11:18:33.912Z,11.11
2023-02-02T11:20:22.107Z,11.24
2023-02-02T11:21:54.821Z,11.43
2023-02-02T11:23:27.434Z,11.59
2023-02-02T11:25:00.219Z,11.61
2023-02-02T11:26:46.516Z,11.62
2023-02-02T11:28:20.958Z,11.70
2023-02-02T11:29:53.265Z,11.72
2023-02-02T11:31:34.931Z,11.75
2023-02-02T11:33:25.143Z,11.87
2023-02-02T11:35:02.680Z,11.91
2023-02-02T11:36:34.331Z,11.95
2023-02-02T11:38:09.188Z,11.89
2023-02-02T11:39:44.028Z,11.88
2023-02-02T11:41:17.326Z,11.76
2023-02-02T11:42:49.756Z,11.49
2023-02-02T11:44:26.465Z,11.32
2023-02-02T11:46:02.981Z,11.11
2023-02-02T11:47:35.002Z,11.02
2023-02-02T11:49:08.560Z,10.92
2023-02-02T11:50:40.601Z,10.91
2023-02-02T11:52:17.119Z,10.87
2023-02-02T11:53:48.930Z,10.79
2023-02-02T11:55:23.390Z,10.80
2023-02-02T11:56:55.657Z,10.72
2023-02-02T11:58:28.161Z,10.63
2023-02-02T12:00:08.831Z,10.56
2023-02-02T12:01:40.412Z,10.46
2023-02-02T12:03:22.806Z,10.44
2023-02-02T12:05:14.916Z,10.53
2023-02-02T12:06:46.605Z,10.61
2023-02-02T12:08:18.145Z,10.48
2023-02-02T12:09:50.583Z,10.39
2023-02-02T12:11:22.567Z,10.42
2023-02-02T12:13:13.156Z,10.57
2023-02-02T12:14:47.657Z,10.71
2023-02-02T12:16:30.647Z,10.84
2023-02-02T12:18:22.625Z,11.05
2023-02-02T12:19:54.169Z,11.14
2023-02-02T12:21:32.142Z,11.05
2023-02-02T12:23:08.083Z,11.00
2023-02-02T12:24:49.585Z,10.92
2023-02-02T12:26:25.667Z,10.88
2023-02-02T12:28:16.057Z,10.99
2023-02-02T12:29:47.717Z,11.10
2023-02-02T12:31:22.696Z,11.19
2023-02-02T12:33:00.515Z,11.28
2023-02-02T12:34:51.212Z,11.41
2023-02-02T12:36:22.796Z,11.45
2023-02-02T12:37:54.366Z,11.39
2023-02-02T12:39:25.840Z,11.37
2023-02-02T12:40:57.600Z,11.34
2023-02-02T12:42:35.153Z,11.34
2023-02-02T12:44:25.793Z,11.32
2023-02-02T12:45:58.093Z,11.27
2023-02-02T12:47:41.853Z,11.22
2023-02-02T12:49:17.964Z,11.09
2023-02-02T12:50:54.557Z,10.95
2023-02-02T12:52:26.144Z,10.85
2023-02-02T12:54:33.453Z,10.75
2023-02-02T12:56:10.418Z,10.73
2023-02-02T12:57:48.276Z,10.66
2023-02-02T12:59:26.351Z,10.63
2023-02-02T13:01:10.232Z,10.58
2023-02-02T13:02:51.017Z,10.55
2023-02-02T13:04:40.389Z,10.54
2023-02-02T13:06:30.948Z,10.51
2023-02-02T13:08:07.860Z,10.50
2023-02-02T13:09:41.461Z,10.46
2023-02-02T13:11:35.394Z,10.42
2023-02-02T13:13:19.928Z,10.39
2023-02-02T13:15:11.713Z,10.38
2023-02-02T13:16:49.637Z,10.38
2023-02-02T13:18:23.910Z,10.39
2023-02-02T13:20:03.512Z,10.39
2023-02-02T13:21:35.228Z,10.34
2023-02-02T13:23:08.871Z,10.33
2023-02-02T13:24:41.372Z,10.24
2023-02-02T13:26:19.973Z,10.14
2023-02-02T13:27:52.892Z,10.07
2023-02-02T13:29:33.482Z,10.02
2023-02-02T13:31:06.532Z,9.95
2023-02-02T13:32:38.684Z,9.87
2023-02-02T13:34:10.256Z,9.81
2023-02-02T13:36:05.170Z,9.81
2023-02-02T13:37:39.787Z,9.70
2023-02-02T13:39:13.475Z,9.71
2023-02-02T13:40:45.071Z,9.62
2023-02-02T13:42:28.801Z,9.55
2023-02-02T13:44:18.453Z,9.50
2023-02-02T13:46:08.945Z,9.47
2023-02-02T13:47:41.864Z,9.48
2023-02-02T13:49:16.353Z,9.40
2023-02-02T13:50:53.145Z,9.28
2023-02-02T13:52:24.649Z,9.16
2023-02-02T13:54:02.445Z,9.07
2023-02-02T13:55:52.580Z,8.94
2023-02-02T13:57:24.236Z,8.78
2023-02-02T13:58:59.286Z,8.76
2023-02-02T14:00:33.552Z,8.64
2023-02-02T14:02:07.742Z,8.55
2023-02-02T14:03:40.440Z,8.40
2023-02-02T14:05:23.474Z,8.26
2023-02-02T14:06:59.458Z,8.10
2023-02-02T14:08:31.036Z,8.02
2023-02-02T14:10:04.576Z,7.94
2023-02-02T14:11:37.799Z,7.89
2023-02-02T14:13:29.316Z,7.84
2023-02-02T14:15:01.003Z,7.81
2023-02-02T14:16:32.623Z,7.77
2023-02-02T14:18:04.314Z,7.78
2023-02-02T14:19:35.926Z,7.77
2023-02-02T14:21:07.958Z,7.74
2023-02-02T14:22:40.633Z,7.75
2023-02-02T14:24:27.598Z,7.75
2023-02-02T14:26:05.821Z,7.66
2023-02-02T14:27:40.592Z,7.61
2023-02-02T14:29:33.243Z,7.64
2023-02-02T14:31:18.252Z,7.67
2023-02-02T14:32:50.081Z,7.68
2023-02-02T14:34:40.429Z,7.63
2023-02-02T14:36:13.022Z,7.60
2023-02-02T14:37:49.509Z,7.61
2023-02-02T14:39:21.867Z,7.63
2023-02-02T14:41:03.629Z,7.60
2023-02-02T14:43:12.021Z,7.57
2023-02-02T14:45:04.484Z,7.62
2023-02-02T14:46:39.711Z,7.57
2023-02-02T14:48:14.365Z,7.45
2023-02-02T14:49:45.990Z,7.40
2023-02-02T14:51:24.561Z,7.35
2023-02-02T14:53:03.599Z,7.34
2023-02-02T14:54:36.437Z,7.34
2023-02-02T14:56:11.150Z,7.36
2023-02-02T14:57:42.984Z,7.39
2023-02-02T14:59:23.019Z,7.45
2023-02-02T15:00:55.536Z,7.46
2023-02-02T15:02:30.232Z,7.42
2023-02-02T15:04:20.328Z,7.37
2023-02-02T15:06:01.551Z,7.29
2023-02-02T15:07:34.255Z,7.14
2023-02-02T15:09:21.093Z,7.06
2023-02-02T15:10:56.915Z,6.88
2023-02-02T15:12:33.357Z,6.76
2023-02-02T15:14:07.544Z,6.69
2023-02-02T15:15:40.977Z,6.65
2023-02-02T15:17:30.999Z,6.59
2023-02-02T15:19:09.644Z,6.50
2023-02-02T15:20:45.866Z,6.49
2023-02-02T15:22:23.792Z,6.44
2023-02-02T15:23:55.375Z,6.38
2023-02-02T15:25:46.008Z,6.29
2023-02-02T15:27:18.011Z,6.14
2023-02-02T15:28:49.518Z,6.06
2023-02-02T15:30:21.259Z,5.99
2023-02-02T15:31:54.542Z,5.97
2023-02-02T15:33:36.786Z,5.98
2023-02-02T15:35:08.500Z,6.02
2023-02-02T15:36:41.179Z,6.10
2023-02-02T15:38:13.333Z,6.16
2023-02-02T15:39:49.257Z,6.26
2023-02-02T15:41:42.627Z,6.28
2023-02-02T15:43:14.277Z,6.25
2023-02-02T15:44:45.991Z,6.21
2023-02-02T15:46:24.637Z,6.22
2023-02-02T15:47:57.433Z,6.19
2023-02-02T15:49:35.428Z,6.15
2023-02-02T15:51:08.060Z,6.08
2023-02-02T15:52:46.043Z,6.02
2023-02-02T15:54:25.452Z,5.95
2023-02-02T15:55:58.114Z,5.99
2023-02-02T15:57:31.855Z,5.87
2023-02-02T15:59:03.643Z,5.84
2023-02-02T16:00:38.191Z,5.81
2023-02-02T16:02:09.978Z,5.78
2023-02-02T16:03:52.563Z,5.77
2023-02-02T16:05:24.731Z,5.71
2023-02-02T16:06:56.733Z,5.69
2023-02-02T16:08:29.907Z,5.67
2023-02-02T16:10:04.762Z,5.65
2023-02-02T16:11:36.365Z,5.58
2023-02-02T16:13:07.882Z,5.57
2023-02-02T16:14:39.618Z,5.54
2023-02-02T16:16:27.584Z,5.53
2023-02-02T16:18:00.221Z,5.50
2023-02-02T16:19:31.893Z,5.41
2023-02-02T16:21:05.423Z,5.31
2023-02-02T16:22:37.727Z,5.24
2023-02-02T16:24:12.147Z,5.24
2023-02-02T16:25:50.320Z,5.24
2023-02-02T16:27:23.336Z,5.27
2023-02-02T16:28:55.143Z,5.29
2023-02-02T16:30:28.136Z,5.28
2023-02-02T16:32:00.117Z,5.26
2023-02-02T16:33:38.690Z,5.22
2023-02-02T16:35:29.308Z,5.16
2023-02-02T16:37:04.272Z,5.14
2023-02-02T16:38:36.957Z,5.11
2023-02-02T16:40:17.822Z,5.10
2023-02-02T16:41:50.949Z,5.06
2023-02-02T16:43:27.133Z,5.08
2023-02-02T16:45:00.237Z,5.10
2023-02-02T16:46:44.864Z,5.12
2023-02-02T16:48:20.803Z,5.11
2023-02-02T16:50:08.145Z,5.11
2023-02-02T16:51:39.927Z,5.11
2023-02-02T16:53:11.906Z,5.13
2023-02-02T16:54:49.890Z,5.07
2023-02-02T16:56:31.703Z,5.09
2023-02-02T16:58:05.040Z,5.10
2023-02-02T16:59:38.462Z,5.13
2023-02-02T17:01:16.022Z,5.09
2023-02-02T17:02:48.640Z,5.08
2023-02-02T17:04:27.123Z,5.02
2023-02-02T17:05:58.787Z,5.04
2023-02-02T17:07:30.545Z,5.08
2023-02-02T17:09:13.955Z,5.09
2023-02-02T17:10:45.790Z,5.08
2023-02-02T17:12:35.016Z,5.11
2023-02-02T17:14:19.804Z,5.10
2023-02-02T17:15:51.802Z,5.10
2023-02-02T17:17:23.512Z,5.10
2023-02-02T17:18:58.118Z,5.10
2023-02-02T17:20:29.812Z,5.07
2023-02-02T17:22:02.353Z,5.04
2023-02-02T17:23:36.520Z,5.05
2023-02-02T17:25:10.458Z,5.03
2023-02-02T17:26:42.551Z,5.00
2023-02-02T17:28:15.087Z,5.02
2023-02-02T17:29:46.779Z,5.05
2023-02-02T17:31:18.455Z,5.05
2023-02-02T17:32:50.082Z,5.09
2023-02-02T17:34:21.625Z,5.12
2023-02-02T17:35:55.814Z,5.09
2023-02-02T17:37:27.964Z,5.10
2023-02-02T17:38:59.588Z,5.13
2023-02-02T17:40:31.172Z,5.17
2023-02-02T17:42:02.735Z,5.20
2023-02-02T17:43:34.389Z,5.20
2023-02-02T17:45:10.435Z,5.19
2023-02-02T17:46:42.096Z,5.17
2023-02-02T17:48:13.940Z,5.17
2023-02-02T17:49:45.573Z,5.17
2023-02-02T17:51:17.344Z,5.15
2023-02-02T17:52:49.781Z,5.17
2023-02-02T17:54:21.323Z,5.21
2023-02-02T17:55:53.531Z,5.25
2023-02-02T17:57:25.701Z,5.24
2023-02-02T17:58:57.539Z,5.23
2023-02-02T18:00:31.450Z,5.22
2023-02-02T18:02:03.890Z,5.20
2023-02-02T18:03:36.420Z,5.21
2023-02-02T18:05:08.511Z,5.17
2023-02-02T18:06:40.841Z,5.16
2023-02-02T18:08:12.590Z,5.14
2023-02-02T18:09:44.743Z,5.07
2023-02-02T18:11:16.568Z,5.02
2023-02-02T18:12:48.514Z,5.02
2023-02-02T18:14:20.156Z,5.02
2023-02-02T18:15:52.107Z,5.02
2023-02-02T18:17:23.631Z,5.01
2023-02-02T18:18:56.845Z,4.95
2023-02-02T18:20:28.886Z,4.94
2023-02-02T18:22:00.980Z,4.86
2023-02-02T18:23:32.779Z,4.74
2023-02-02T18:25:05.462Z,4.59
2023-02-02T18:26:37.431Z,4.47
2023-02-02T18:28:09.136Z,4.44
2023-02-02T18:29:40.719Z,4.46
2023-02-02T18:31:13.120Z,4.48
2023-02-02T18:32:44.800Z,4.49
2023-02-02T18:34:16.359Z,4.54
2023-02-02T18:35:48.150Z,4.56
2023-02-02T18:37:19.611Z,4.57
2023-02-02T18:38:51.651Z,4.57
2023-02-02T18:40:23.208Z,4.59
2023-02-02T18:41:54.744Z,4.62
2023-02-02T18:43:26.288Z,4.64
2023-02-02T18:44:58.059Z,4.65
2023-02-02T18:46:33.835Z,4.69
2023-02-02T18:48:05.497Z,4.72
2023-02-02T18:49:37.158Z,4.72
2023-02-02T18:51:11.190Z,4.69
2023-02-02T18:52:42.708Z,4.65
2023-02-02T18:54:14.332Z,4.64
2023-02-02T18:55:45.938Z,4.64
2023-02-02T18:57:17.583Z,4.67
2023-02-02T18:58:49.689Z,4.67
2023-02-02T19:00:22.206Z,4.70
2023-02-02T19:01:54.668Z,4.70
2023-02-02T19:03:26.151Z,4.71
2023-02-02T19:05:16.367Z,4.73
2023-02-02T19:07:06.658Z,4.68
2023-02-02T19:08:38.243Z,4.55
2023-02-02T19:10:09.980Z,4.42
2023-02-02T19:11:43.841Z,4.29
2023-02-02T19:13:19.393Z,4.26
2023-02-02T19:14:51.025Z,4.30
2023-02-02T19:16:32.854Z,4.33
2023-02-02T19:18:07.484Z,4.40
2023-02-02T19:19:40.594Z,4.46
2023-02-02T19:21:13.149Z,4.50
2023-02-02T19:22:44.794Z,4.53
2023-02-02T19:24:16.405Z,4.56
2023-02-02T19:25:51.143Z,4.56
2023-02-02T19:27:23.461Z,4.62
2023-02-02T19:28:56.319Z,4.62
2023-02-02T19:30:28.088Z,4.60
2023-02-02T19:32:00.907Z,4.60
2023-02-02T19:33:42.005Z,4.58
2023-02-02T19:35:21.087Z,4.55
2023-02-02T19:36:53.151Z,4.46
2023-02-02T19:38:25.170Z,4.45
2023-02-02T19:40:17.658Z,4.49
2023-02-02T19:41:49.577Z,4.56
2023-02-02T19:43:28.037Z,4.64
2023-02-02T19:44:59.583Z,4.71
2023-02-02T19:46:31.288Z,4.81
2023-02-02T19:48:06.988Z,4.78
2023-02-02T19:49:38.641Z,4.75
2023-02-02T19:51:39.499Z,4.71
2023-02-02T19:53:34.981Z,4.71
2023-02-02T19:55:16.110Z,4.68
2023-02-02T19:56:48.271Z,4.67
2023-02-02T19:58:20.427Z,4.69
2023-02-02T19:59:52.777Z,4.69
2023-02-02T20:01:24.370Z,4.65
2023-02-02T20:02:57.827Z,4.64
2023-02-02T20:04:29.340Z,4.59
2023-02-02T20:06:00.816Z,4.56
2023-02-02T20:07:32.395Z,4.55
2023-02-02T20:09:11.052Z,4.54
2023-02-02T20:10:43.647Z,4.56
2023-02-02T20:12:19.522Z,4.60
2023-02-02T20:13:51.803Z,4.63
2023-02-02T20:15:35.473Z,4.67
2023-02-02T20:17:07.505Z,4.73
2023-02-02T20:18:42.659Z,4.72
2023-02-02T20:20:26.103Z,4.71
2023-02-02T20:21:58.212Z,4.70
2023-02-02T20:23:32.457Z,4.69
2023-02-02T20:25:04.817Z,4.67
2023-02-02T20:26:36.828Z,4.66
2023-02-02T20:28:08.546Z,4.64
2023-02-02T20:29:43.620Z,4.63
2023-02-02T20:31:16.756Z,4.61
2023-02-02T20:32:49.429Z,4.61
2023-02-02T20:34:23.912Z,4.59
2023-02-02T20:35:56.721Z,4.60
2023-02-02T20:37:31.940Z,4.62
2023-02-02T20:39:15.904Z,4.62
2023-02-02T20:40:48.435Z,4.57
2023-02-02T20:42:20.083Z,4.55
2023-02-02T20:43:52.071Z,4.52
2023-02-02T20:45:23.593Z,4.50
2023-02-02T20:46:55.495Z,4.49
2023-02-02T20:48:27.711Z,4.48
2023-02-02T20:50:01.336Z,4.47
2023-02-02T20:51:33.611Z,4.45
2023-02-02T20:53:06.008Z,4.44
2023-02-02T20:54:37.767Z,4.40
2023-02-02T20:56:09.518Z,4.37
2023-02-02T20:57:41.139Z,4.36